createdAt,value
2017-08-13T16:00:45.151Z,1009.24
2017-08-13T16:01:49.548Z,1009.28
2017-08-13T16:03:14.413Z,1009.28
2017-08-13T16:04:18.784Z,1009.29
2017-08-13T16:05:43.477Z,1009.32
2017-08-13T16:07:28.180Z,1009.29
2017-08-13T16:09:12.867Z,1009.29
2017-08-13T16:10:57.518Z,1009.29
2017-08-13T16:12:42.156Z,1009.29
2017-08-13T16:14:26.854Z,1009.32
2017-08-13T16:16:11.590Z,1009.31
2017-08-13T16:17:56.272Z,1009.31
2017-08-13T16:19:40.955Z,1009.38
2017-08-13T16:21:25.633Z,1009.42
2017-08-13T16:23:10.362Z,1009.46
2017-08-13T16:24:55.030Z,1009.47
2017-08-13T16:26:39.730Z,1009.51
2017-08-13T16:28:24.603Z,1009.48
2017-08-13T16:29:29.004Z,1009.51
2017-08-13T16:30:53.696Z,1009.55
2017-08-13T16:31:58.120Z,1009.58
2017-08-13T16:33:02.502Z,1009.59
2017-08-13T16:34:07.579Z,1009.61
2017-08-13T16:35:12.294Z,1009.58
2017-08-13T16:36:16.730Z,1009.59
2017-08-13T16:37:21.134Z,1009.60
2017-08-13T16:38:25.535Z,1009.63
2017-08-13T16:39:29.945Z,1009.69
2017-08-13T16:40:34.349Z,1009.70
2017-08-13T16:41:38.712Z,1009.73
2017-08-13T16:42:43.102Z,1009.76
2017-08-13T16:43:48.362Z,1009.77
2017-08-13T16:44:52.769Z,1009.79
2017-08-13T16:45:57.159Z,1009.84
2017-08-13T16:47:05.052Z,1009.88
2017-08-13T16:48:09.473Z,1009.93
2017-08-13T16:49:13.868Z,1009.93
2017-08-13T16:50:18.269Z,1009.92
2017-08-13T16:51:22.652Z,1009.91
2017-08-13T16:52:29.253Z,1009.95
2017-08-13T16:53:33.868Z,1009.92
2017-08-13T16:54:38.271Z,1009.97
2017-08-13T16:55:42.667Z,1010.01
2017-08-13T16:56:47.052Z,1010.00
